sensor_id;sensor_type;location;lat;lon;timestamp;P1;durP1;ratioP1;P2;durP2;ratioP2
43363;SDS011;40636;52.424;-1.948;2023-04-03T00:00:55;5.40;;;1.83;;
43363;SDS011;40636;52.424;-1.948;2023-04-03T00:03:22;5.68;;;2.25;;
43363;SDS011;40636;52.424;-1.948;2023-04-03T00:05:49;3.80;;;2.10;;
43363;SDS011;40636;52.424;-1.948;2023-04-03T00:08:16;5.45;;;2.17;;
43363;SDS011;40636;52.424;-1.948;2023-04-03T00:10:43;9.43;;;2.25;;
43363;SDS011;40636;52.424;-1.948;2023-04-03T00:13:09;5.18;;;2.30;;
43363;SDS011;40636;52.424;-1.948;2023-04-03T00:15:36;4.03;;;2.30;;
43363;SDS011;40636;52.424;-1.948;2023-04-03T00:18:04;4.45;;;2.15;;
43363;SDS011;40636;52.424;-1.948;2023-04-03T00:20:31;5.05;;;1.75;;
43363;SDS011;40636;52.424;-1.948;2023-04-03T00:22:58;7.18;;;2.20;;
43363;SDS011;40636;52.424;-1.948;2023-04-03T00:25:25;4.20;;;1.70;;
43363;SDS011;40636;52.424;-1.948;2023-04-03T00:27:52;8.70;;;2.60;;
43363;SDS011;40636;52.424;-1.948;2023-04-03T00:30:20;8.57;;;2.63;;
43363;SDS011;40636;52.424;-1.948;2023-04-03T00:32:48;3.67;;;1.80;;
43363;SDS011;40636;52.424;-1.948;2023-04-03T00:35:15;5.10;;;2.28;;
43363;SDS011;40636;52.424;-1.948;2023-04-03T00:37:43;6.93;;;2.25;;
43363;SDS011;40636;52.424;-1.948;2023-04-03T00:40:10;4.90;;;2.47;;
43363;SDS011;40636;52.424;-1.948;2023-04-03T00:42:42;4.68;;;2.15;;
43363;SDS011;40636;52.424;-1.948;2023-04-03T00:47:39;2.45;;;2.00;;
43363;SDS011;40636;52.424;-1.948;2023-04-03T00:50:08;2.72;;;2.00;;
43363;SDS011;40636;52.424;-1.948;2023-04-03T00:52:35;6.22;;;2.08;;
43363;SDS011;40636;52.424;-1.948;2023-04-03T00:55:05;6.22;;;2.10;;
43363;SDS011;40636;52.424;-1.948;2023-04-03T00:57:34;6.25;;;2.03;;
43363;SDS011;40636;52.424;-1.948;2023-04-03T01:00:06;4.68;;;2.17;;
43363;SDS011;40636;52.424;-1.948;2023-04-03T01:02:37;3.22;;;1.75;;
43363;SDS011;40636;52.424;-1.948;2023-04-03T01:05:07;3.97;;;2.22;;
43363;SDS011;40636;52.424;-1.948;2023-04-03T01:07:34;3.45;;;2.00;;
43363;SDS011;40636;52.424;-1.948;2023-04-03T01:10:05;5.47;;;2.08;;
43363;SDS011;40636;52.424;-1.948;2023-04-03T01:12:35;10.43;;;2.72;;
43363;SDS011;40636;52.424;-1.948;2023-04-03T01:15:14;6.70;;;2.75;;
43363;SDS011;40636;52.424;-1.948;2023-04-03T01:17:44;6.15;;;2.40;;
43363;SDS011;40636;52.424;-1.948;2023-04-03T01:25:40;3.67;;;2.65;;
43363;SDS011;40636;52.424;-1.948;2023-04-03T01:28:14;4.45;;;2.67;;
43363;SDS011;40636;52.424;-1.948;2023-04-03T01:30:51;6.68;;;1.98;;
43363;SDS011;40636;52.424;-1.948;2023-04-03T01:33:25;5.72;;;2.67;;
43363;SDS011;40636;52.424;-1.948;2023-04-03T01:35:52;4.28;;;2.47;;
43363;SDS011;40636;52.424;-1.948;2023-04-03T01:38:19;7.25;;;2.03;;
43363;SDS011;40636;52.424;-1.948;2023-04-03T01:40:46;6.68;;;2.50;;
43363;SDS011;40636;52.424;-1.948;2023-04-03T01:43:13;5.32;;;2.35;;
43363;SDS011;40636;52.424;-1.948;2023-04-03T01:45:40;3.58;;;2.70;;
43363;SDS011;40636;52.424;-1.948;2023-04-03T01:48:07;5.47;;;2.72;;
43363;SDS011;40636;52.424;-1.948;2023-04-03T01:50:34;9.18;;;3.17;;
43363;SDS011;40636;52.424;-1.948;2023-04-03T01:53:01;7.07;;;3.08;;
43363;SDS011;40636;52.424;-1.948;2023-04-03T01:55:27;3.13;;;2.35;;
43363;SDS011;40636;52.424;-1.948;2023-04-03T01:57:54;7.47;;;2.28;;
43363;SDS011;40636;52.424;-1.948;2023-04-03T02:00:21;4.10;;;2.20;;
43363;SDS011;40636;52.424;-1.948;2023-04-03T02:02:48;2.80;;;2.17;;
43363;SDS011;40636;52.424;-1.948;2023-04-03T02:05:15;3.55;;;2.20;;
43363;SDS011;40636;52.424;-1.948;2023-04-03T02:07:41;9.57;;;3.13;;
43363;SDS011;40636;52.424;-1.948;2023-04-03T02:10:08;4.53;;;1.98;;
43363;SDS011;40636;52.424;-1.948;2023-04-03T02:12:35;6.85;;;2.35;;
43363;SDS011;40636;52.424;-1.948;2023-04-03T02:15:02;5.90;;;2.67;;
43363;SDS011;40636;52.424;-1.948;2023-04-03T02:17:29;4.78;;;2.03;;
43363;SDS011;40636;52.424;-1.948;2023-04-03T02:19:57;5.13;;;2.60;;
43363;SDS011;40636;52.424;-1.948;2023-04-03T02:22:24;3.08;;;2.00;;
43363;SDS011;40636;52.424;-1.948;2023-04-03T02:24:51;3.63;;;1.98;;
43363;SDS011;40636;52.424;-1.948;2023-04-03T02:27:18;3.20;;;2.22;;
43363;SDS011;40636;52.424;-1.948;2023-04-03T02:29:44;3.38;;;1.95;;
43363;SDS011;40636;52.424;-1.948;2023-04-03T02:32:11;3.65;;;2.13;;
43363;SDS011;40636;52.424;-1.948;2023-04-03T02:34:38;3.78;;;2.65;;
43363;SDS011;40636;52.424;-1.948;2023-04-03T02:37:04;3.22;;;2.10;;
43363;SDS011;40636;52.424;-1.948;2023-04-03T02:39:31;3.95;;;2.58;;
43363;SDS011;40636;52.424;-1.948;2023-04-03T02:41:58;5.30;;;2.00;;
43363;SDS011;40636;52.424;-1.948;2023-04-03T02:44:24;5.53;;;2.47;;
43363;SDS011;40636;52.424;-1.948;2023-04-03T02:46:51;4.70;;;2.08;;
43363;SDS011;40636;52.424;-1.948;2023-04-03T02:49:18;5.07;;;2.28;;
43363;SDS011;40636;52.424;-1.948;2023-04-03T02:51:45;5.28;;;3.60;;
43363;SDS011;40636;52.424;-1.948;2023-04-03T02:54:12;5.25;;;2.58;;
43363;SDS011;40636;52.424;-1.948;2023-04-03T02:56:38;3.70;;;2.53;;
43363;SDS011;40636;52.424;-1.948;2023-04-03T02:59:05;2.92;;;2.17;;
43363;SDS011;40636;52.424;-1.948;2023-04-03T03:01:32;3.70;;;2.35;;
43363;SDS011;40636;52.424;-1.948;2023-04-03T03:03:59;8.55;;;2.53;;
43363;SDS011;40636;52.424;-1.948;2023-04-03T03:06:26;4.03;;;2.15;;
43363;SDS011;40636;52.424;-1.948;2023-04-03T03:08:53;5.50;;;2.45;;
43363;SDS011;40636;52.424;-1.948;2023-04-03T03:11:20;4.90;;;2.35;;
43363;SDS011;40636;52.424;-1.948;2023-04-03T03:13:47;4.03;;;2.50;;
43363;SDS011;40636;52.424;-1.948;2023-04-03T03:16:14;5.13;;;2.55;;
43363;SDS011;40636;52.424;-1.948;2023-04-03T03:18:41;6.13;;;3.03;;
43363;SDS011;40636;52.424;-1.948;2023-04-03T03:21:08;4.28;;;2.90;;
43363;SDS011;40636;52.424;-1.948;2023-04-03T03:23:35;5.57;;;3.03;;
43363;SDS011;40636;52.424;-1.948;2023-04-03T03:26:04;6.35;;;3.70;;
43363;SDS011;40636;52.424;-1.948;2023-04-03T03:28:32;6.53;;;2.65;;
43363;SDS011;40636;52.424;-1.948;2023-04-03T03:31:00;7.82;;;3.33;;
43363;SDS011;40636;52.424;-1.948;2023-04-03T03:33:27;5.80;;;2.65;;
43363;SDS011;40636;52.424;-1.948;2023-04-03T03:35:54;3.83;;;2.70;;
43363;SDS011;40636;52.424;-1.948;2023-04-03T03:38:22;5.47;;;2.97;;
43363;SDS011;40636;52.424;-1.948;2023-04-03T03:40:49;6.68;;;2.63;;
43363;SDS011;40636;52.424;-1.948;2023-04-03T03:43:17;3.88;;;2.25;;
43363;SDS011;40636;52.424;-1.948;2023-04-03T03:45:44;5.63;;;2.53;;
43363;SDS011;40636;52.424;-1.948;2023-04-03T03:48:12;4.60;;;2.72;;
43363;SDS011;40636;52.424;-1.948;2023-04-03T03:50:39;3.35;;;2.47;;
43363;SDS011;40636;52.424;-1.948;2023-04-03T03:53:05;3.13;;;2.53;;
43363;SDS011;40636;52.424;-1.948;2023-04-03T03:55:32;5.60;;;2.15;;
43363;SDS011;40636;52.424;-1.948;2023-04-03T03:57:59;3.70;;;2.38;;
43363;SDS011;40636;52.424;-1.948;2023-04-03T04:00:27;6.57;;;3.20;;
43363;SDS011;40636;52.424;-1.948;2023-04-03T04:02:54;4.65;;;3.00;;
43363;SDS011;40636;52.424;-1.948;2023-04-03T04:05:24;6.55;;;4.25;;
43363;SDS011;40636;52.424;-1.948;2023-04-03T04:07:51;7.32;;;2.67;;
43363;SDS011;40636;52.424;-1.948;2023-04-03T04:10:17;9.65;;;2.85;;
43363;SDS011;40636;52.424;-1.948;2023-04-03T04:12:44;4.43;;;2.50;;
43363;SDS011;40636;52.424;-1.948;2023-04-03T04:15:11;4.07;;;2.88;;
43363;SDS011;40636;52.424;-1.948;2023-04-03T04:17:38;6.40;;;3.15;;
43363;SDS011;40636;52.424;-1.948;2023-04-03T04:20:06;6.07;;;3.05;;
43363;SDS011;40636;52.424;-1.948;2023-04-03T04:22:33;5.88;;;2.55;;
43363;SDS011;40636;52.424;-1.948;2023-04-03T04:24:59;6.43;;;2.80;;
43363;SDS011;40636;52.424;-1.948;2023-04-03T04:27:26;4.55;;;2.72;;
43363;SDS011;40636;52.424;-1.948;2023-04-03T04:29:53;5.75;;;3.03;;
43363;SDS011;40636;52.424;-1.948;2023-04-03T04:32:19;6.05;;;2.50;;
43363;SDS011;40636;52.424;-1.948;2023-04-03T04:34:46;4.18;;;2.67;;
43363;SDS011;40636;52.424;-1.948;2023-04-03T04:37:13;7.00;;;2.70;;
43363;SDS011;40636;52.424;-1.948;2023-04-03T04:39:39;4.93;;;3.08;;
43363;SDS011;40636;52.424;-1.948;2023-04-03T04:42:06;6.25;;;2.78;;
43363;SDS011;40636;52.424;-1.948;2023-04-03T04:44:34;4.05;;;3.05;;
43363;SDS011;40636;52.424;-1.948;2023-04-03T04:47:01;3.58;;;2.40;;
43363;SDS011;40636;52.424;-1.948;2023-04-03T04:49:28;8.57;;;3.45;;
43363;SDS011;40636;52.424;-1.948;2023-04-03T04:51:54;7.57;;;3.70;;
43363;SDS011;40636;52.424;-1.948;2023-04-03T04:54:21;6.63;;;2.60;;
43363;SDS011;40636;52.424;-1.948;2023-04-03T04:56:48;5.03;;;2.83;;
43363;SDS011;40636;52.424;-1.948;2023-04-03T04:59:15;6.95;;;2.42;;
43363;SDS011;40636;52.424;-1.948;2023-04-03T05:01:41;5.45;;;3.83;;
43363;SDS011;40636;52.424;-1.948;2023-04-03T05:04:08;4.70;;;2.97;;
43363;SDS011;40636;52.424;-1.948;2023-04-03T05:06:35;8.90;;;3.13;;
43363;SDS011;40636;52.424;-1.948;2023-04-03T05:09:02;4.03;;;2.65;;
43363;SDS011;40636;52.424;-1.948;2023-04-03T05:11:29;4.85;;;3.30;;
43363;SDS011;40636;52.424;-1.948;2023-04-03T05:13:56;7.53;;;3.33;;
43363;SDS011;40636;52.424;-1.948;2023-04-03T05:16:23;3.85;;;2.75;;
43363;SDS011;40636;52.424;-1.948;2023-04-03T05:18:50;7.43;;;3.42;;
43363;SDS011;40636;52.424;-1.948;2023-04-03T05:21:17;14.07;;;4.90;;
43363;SDS011;40636;52.424;-1.948;2023-04-03T05:23:44;6.20;;;3.50;;
43363;SDS011;40636;52.424;-1.948;2023-04-03T05:26:11;7.22;;;2.97;;
43363;SDS011;40636;52.424;-1.948;2023-04-03T05:28:38;8.85;;;4.45;;
43363;SDS011;40636;52.424;-1.948;2023-04-03T05:31:04;4.70;;;3.15;;
43363;SDS011;40636;52.424;-1.948;2023-04-03T05:33:31;6.15;;;3.22;;
43363;SDS011;40636;52.424;-1.948;2023-04-03T05:36:01;8.43;;;3.58;;
43363;SDS011;40636;52.424;-1.948;2023-04-03T05:38:30;4.80;;;3.15;;
43363;SDS011;40636;52.424;-1.948;2023-04-03T05:40:57;10.30;;;3.75;;
43363;SDS011;40636;52.424;-1.948;2023-04-03T05:43:23;5.47;;;3.38;;
43363;SDS011;40636;52.424;-1.948;2023-04-03T05:45:52;5.25;;;3.22;;
43363;SDS011;40636;52.424;-1.948;2023-04-03T05:48:19;6.18;;;4.07;;
43363;SDS011;40636;52.424;-1.948;2023-04-03T05:50:46;9.35;;;4.90;;
43363;SDS011;40636;52.424;-1.948;2023-04-03T05:53:17;8.75;;;3.83;;
43363;SDS011;40636;52.424;-1.948;2023-04-03T05:55:48;5.15;;;3.30;;
43363;SDS011;40636;52.424;-1.948;2023-04-03T05:58:15;6.38;;;3.90;;
43363;SDS011;40636;52.424;-1.948;2023-04-03T06:00:41;11.52;;;4.15;;
43363;SDS011;40636;52.424;-1.948;2023-04-03T06:03:08;6.90;;;3.72;;
43363;SDS011;40636;52.424;-1.948;2023-04-03T06:05:35;7.03;;;3.45;;
43363;SDS011;40636;52.424;-1.948;2023-04-03T06:08:02;5.95;;;3.50;;
43363;SDS011;40636;52.424;-1.948;2023-04-03T06:10:29;10.80;;;5.88;;
43363;SDS011;40636;52.424;-1.948;2023-04-03T06:12:56;7.60;;;4.80;;
43363;SDS011;40636;52.424;-1.948;2023-04-03T06:15:23;5.45;;;3.38;;
43363;SDS011;40636;52.424;-1.948;2023-04-03T06:17:51;8.75;;;3.55;;
43363;SDS011;40636;52.424;-1.948;2023-04-03T06:20:17;8.50;;;3.85;;
43363;SDS011;40636;52.424;-1.948;2023-04-03T06:22:44;9.65;;;4.85;;
43363;SDS011;40636;52.424;-1.948;2023-04-03T06:25:12;6.03;;;4.00;;
43363;SDS011;40636;52.424;-1.948;2023-04-03T06:27:38;9.32;;;4.53;;
43363;SDS011;40636;52.424;-1.948;2023-04-03T06:30:06;8.23;;;3.70;;
43363;SDS011;40636;52.424;-1.948;2023-04-03T06:32:33;5.03;;;4.22;;
43363;SDS011;40636;52.424;-1.948;2023-04-03T06:35:00;7.60;;;4.72;;
43363;SDS011;40636;52.424;-1.948;2023-04-03T06:37:27;11.35;;;4.80;;
43363;SDS011;40636;52.424;-1.948;2023-04-03T06:39:55;11.60;;;4.43;;
43363;SDS011;40636;52.424;-1.948;2023-04-03T06:42:22;5.65;;;4.25;;
43363;SDS011;40636;52.424;-1.948;2023-04-03T06:44:49;10.25;;;4.35;;
43363;SDS011;40636;52.424;-1.948;2023-04-03T06:47:16;8.48;;;5.10;;
43363;SDS011;40636;52.424;-1.948;2023-04-03T06:49:44;6.93;;;4.38;;
43363;SDS011;40636;52.424;-1.948;2023-04-03T06:52:11;6.22;;;3.72;;
43363;SDS011;40636;52.424;-1.948;2023-04-03T06:54:40;6.32;;;4.38;;
43363;SDS011;40636;52.424;-1.948;2023-04-03T06:57:07;8.65;;;4.93;;
43363;SDS011;40636;52.424;-1.948;2023-04-03T06:59:34;12.15;;;3.75;;
43363;SDS011;40636;52.424;-1.948;2023-04-03T07:02:01;6.30;;;3.92;;
43363;SDS011;40636;52.424;-1.948;2023-04-03T07:04:28;7.82;;;3.92;;
43363;SDS011;40636;52.424;-1.948;2023-04-03T07:06:55;6.18;;;3.60;;
43363;SDS011;40636;52.424;-1.948;2023-04-03T07:09:22;14.77;;;3.33;;
43363;SDS011;40636;52.424;-1.948;2023-04-03T07:11:48;6.22;;;3.80;;
43363;SDS011;40636;52.424;-1.948;2023-04-03T07:14:15;14.48;;;3.78;;
43363;SDS011;40636;52.424;-1.948;2023-04-03T07:16:42;9.65;;;2.97;;
43363;SDS011;40636;52.424;-1.948;2023-04-03T07:19:09;7.43;;;3.70;;
43363;SDS011;40636;52.424;-1.948;2023-04-03T07:21:36;7.18;;;2.95;;
43363;SDS011;40636;52.424;-1.948;2023-04-03T07:24:03;7.85;;;3.33;;
43363;SDS011;40636;52.424;-1.948;2023-04-03T07:26:30;10.25;;;3.30;;
43363;SDS011;40636;52.424;-1.948;2023-04-03T07:28:57;14.48;;;3.35;;
43363;SDS011;40636;52.424;-1.948;2023-04-03T07:31:24;8.57;;;2.67;;
43363;SDS011;40636;52.424;-1.948;2023-04-03T07:33:51;5.18;;;2.28;;
43363;SDS011;40636;52.424;-1.948;2023-04-03T07:36:19;6.13;;;2.20;;
43363;SDS011;40636;52.424;-1.948;2023-04-03T07:38:48;6.38;;;2.33;;
43363;SDS011;40636;52.424;-1.948;2023-04-03T07:41:16;8.73;;;2.50;;
43363;SDS011;40636;52.424;-1.948;2023-04-03T07:43:44;6.22;;;2.92;;
43363;SDS011;40636;52.424;-1.948;2023-04-03T07:46:13;5.07;;;2.05;;
43363;SDS011;40636;52.424;-1.948;2023-04-03T07:48:40;5.80;;;2.08;;
43363;SDS011;40636;52.424;-1.948;2023-04-03T07:51:07;3.80;;;2.22;;
43363;SDS011;40636;52.424;-1.948;2023-04-03T07:53:33;6.40;;;1.83;;
43363;SDS011;40636;52.424;-1.948;2023-04-03T07:56:00;3.72;;;2.10;;
43363;SDS011;40636;52.424;-1.948;2023-04-03T07:58:29;2.78;;;1.73;;
43363;SDS011;40636;52.424;-1.948;2023-04-03T08:00:56;7.18;;;2.38;;
43363;SDS011;40636;52.424;-1.948;2023-04-03T08:03:23;8.43;;;2.85;;
43363;SDS011;40636;52.424;-1.948;2023-04-03T08:05:51;3.15;;;1.70;;
43363;SDS011;40636;52.424;-1.948;2023-04-03T08:08:19;8.35;;;1.50;;
43363;SDS011;40636;52.424;-1.948;2023-04-03T08:10:52;4.47;;;1.80;;
43363;SDS011;40636;52.424;-1.948;2023-04-03T08:13:20;7.18;;;1.60;;
43363;SDS011;40636;52.424;-1.948;2023-04-03T08:15:48;4.30;;;2.15;;
43363;SDS011;40636;52.424;-1.948;2023-04-03T08:18:15;3.90;;;1.40;;
43363;SDS011;40636;52.424;-1.948;2023-04-03T08:20:42;5.72;;;2.00;;
43363;SDS011;40636;52.424;-1.948;2023-04-03T08:23:09;6.05;;;1.80;;
43363;SDS011;40636;52.424;-1.948;2023-04-03T08:25:38;8.48;;;1.63;;
43363;SDS011;40636;52.424;-1.948;2023-04-03T08:28:05;5.35;;;2.03;;
43363;SDS011;40636;52.424;-1.948;2023-04-03T08:30:33;5.82;;;2.08;;
43363;SDS011;40636;52.424;-1.948;2023-04-03T08:33:00;4.15;;;1.60;;
43363;SDS011;40636;52.424;-1.948;2023-04-03T08:35:28;4.60;;;1.70;;
43363;SDS011;40636;52.424;-1.948;2023-04-03T08:37:55;2.13;;;1.60;;
43363;SDS011;40636;52.424;-1.948;2023-04-03T08:40:22;5.70;;;1.70;;
43363;SDS011;40636;52.424;-1.948;2023-04-03T08:48:12;2.22;;;1.40;;
43363;SDS011;40636;52.424;-1.948;2023-04-03T08:50:43;2.45;;;2.25;;
43363;SDS011;40636;52.424;-1.948;2023-04-03T08:53:25;3.63;;;1.50;;
43363;SDS011;40636;52.424;-1.948;2023-04-03T08:55:57;6.18;;;2.13;;
43363;SDS011;40636;52.424;-1.948;2023-04-03T08:58:26;4.60;;;1.73;;
43363;SDS011;40636;52.424;-1.948;2023-04-03T09:01:03;4.13;;;1.60;;
43363;SDS011;40636;52.424;-1.948;2023-04-03T09:03:38;6.22;;;1.58;;
43363;SDS011;40636;52.424;-1.948;2023-04-03T09:06:18;3.50;;;3.20;;
43363;SDS011;40636;52.424;-1.948;2023-04-03T09:08:50;4.63;;;2.45;;
43363;SDS011;40636;52.424;-1.948;2023-04-03T09:11:42;1.55;;;1.30;;
43363;SDS011;40636;52.424;-1.948;2023-04-03T09:16:59;2.03;;;1.35;;
43363;SDS011;40636;52.424;-1.948;2023-04-03T09:19:38;11.27;;;1.73;;
43363;SDS011;40636;52.424;-1.948;2023-04-03T09:22:17;3.75;;;1.52;;
43363;SDS011;40636;52.424;-1.948;2023-04-03T09:24:50;6.22;;;1.63;;
43363;SDS011;40636;52.424;-1.948;2023-04-03T09:27:23;4.65;;;1.65;;
43363;SDS011;40636;52.424;-1.948;2023-04-03T09:29:52;2.80;;;1.75;;
43363;SDS011;40636;52.424;-1.948;2023-04-03T09:32:25;4.45;;;1.48;;
43363;SDS011;40636;52.424;-1.948;2023-04-03T09:34:56;2.55;;;1.85;;
43363;SDS011;40636;52.424;-1.948;2023-04-03T09:37:39;5.85;;;1.20;;
43363;SDS011;40636;52.424;-1.948;2023-04-03T09:42:52;3.65;;;1.45;;
43363;SDS011;40636;52.424;-1.948;2023-04-03T09:45:28;4.05;;;1.70;;
43363;SDS011;40636;52.424;-1.948;2023-04-03T09:50:34;3.78;;;2.05;;
43363;SDS011;40636;52.424;-1.948;2023-04-03T09:53:07;5.85;;;1.63;;
43363;SDS011;40636;52.424;-1.948;2023-04-03T09:55:51;3.38;;;1.58;;
43363;SDS011;40636;52.424;-1.948;2023-04-03T10:01:25;3.25;;;1.30;;
43363;SDS011;40636;52.424;-1.948;2023-04-03T10:06:39;5.78;;;1.58;;
43363;SDS011;40636;52.424;-1.948;2023-04-03T10:09:28;3.03;;;1.48;;
43363;SDS011;40636;52.424;-1.948;2023-04-03T10:14:33;11.35;;;3.45;;
43363;SDS011;40636;52.424;-1.948;2023-04-03T10:17:47;3.10;;;1.70;;
43363;SDS011;40636;52.424;-1.948;2023-04-03T10:19:53;1.85;;;1.45;;
43363;SDS011;40636;52.424;-1.948;2023-04-03T10:43:44;9.85;;;2.55;;
43363;SDS011;40636;52.424;-1.948;2023-04-03T10:46:35;2.72;;;1.15;;
43363;SDS011;40636;52.424;-1.948;2023-04-03T10:52:10;4.10;;;2.38;;
43363;SDS011;40636;52.424;-1.948;2023-04-03T10:54:49;5.18;;;2.10;;
43363;SDS011;40636;52.424;-1.948;2023-04-03T10:57:29;8.23;;;1.50;;
43363;SDS011;40636;52.424;-1.948;2023-04-03T10:59:58;2.50;;;1.38;;
43363;SDS011;40636;52.424;-1.948;2023-04-03T11:02:35;6.03;;;1.70;;
43363;SDS011;40636;52.424;-1.948;2023-04-03T11:07:42;2.10;;;1.88;;
43363;SDS011;40636;52.424;-1.948;2023-04-03T11:10:24;2.42;;;1.50;;
43363;SDS011;40636;52.424;-1.948;2023-04-03T11:13:02;4.07;;;1.63;;
43363;SDS011;40636;52.424;-1.948;2023-04-03T11:15:37;1.92;;;1.40;;
43363;SDS011;40636;52.424;-1.948;2023-04-03T11:18:11;2.80;;;1.20;;
43363;SDS011;40636;52.424;-1.948;2023-04-03T11:20:44;5.15;;;2.28;;
43363;SDS011;40636;52.424;-1.948;2023-04-03T11:23:39;3.10;;;1.35;;
43363;SDS011;40636;52.424;-1.948;2023-04-03T11:26:16;1.95;;;1.77;;
43363;SDS011;40636;52.424;-1.948;2023-04-03T11:28:43;4.90;;;1.30;;
43363;SDS011;40636;52.424;-1.948;2023-04-03T11:31:47;4.15;;;1.48;;
43363;SDS011;40636;52.424;-1.948;2023-04-03T11:34:39;5.03;;;1.30;;
43363;SDS011;40636;52.424;-1.948;2023-04-03T11:39:51;8.23;;;1.80;;
43363;SDS011;40636;52.424;-1.948;2023-04-03T11:42:39;11.02;;;2.30;;
43363;SDS011;40636;52.424;-1.948;2023-04-03T11:50:50;5.00;;;1.95;;
43363;SDS011;40636;52.424;-1.948;2023-04-03T11:53:39;5.75;;;1.80;;
43363;SDS011;40636;52.424;-1.948;2023-04-03T12:01:48;6.75;;;2.00;;
43363;SDS011;40636;52.424;-1.948;2023-04-03T12:04:20;8.18;;;1.40;;
43363;SDS011;40636;52.424;-1.948;2023-04-03T12:06:50;4.25;;;1.95;;
43363;SDS011;40636;52.424;-1.948;2023-04-03T12:11:57;7.18;;;2.00;;
43363;SDS011;40636;52.424;-1.948;2023-04-03T12:14:26;3.05;;;1.83;;
43363;SDS011;40636;52.424;-1.948;2023-04-03T12:16:54;2.58;;;1.58;;
43363;SDS011;40636;52.424;-1.948;2023-04-03T12:22:10;3.22;;;1.35;;
43363;SDS011;40636;52.424;-1.948;2023-04-03T12:24:40;1.90;;;1.50;;
43363;SDS011;40636;52.424;-1.948;2023-04-03T12:27:20;3.20;;;1.73;;
43363;SDS011;40636;52.424;-1.948;2023-04-03T12:29:51;1.77;;;1.23;;
43363;SDS011;40636;52.424;-1.948;2023-04-03T12:32:43;3.28;;;1.63;;
43363;SDS011;40636;52.424;-1.948;2023-04-03T12:46:11;3.47;;;1.80;;
43363;SDS011;40636;52.424;-1.948;2023-04-03T12:48:52;4.18;;;2.05;;
43363;SDS011;40636;52.424;-1.948;2023-04-03T12:51:43;6.07;;;2.15;;
43363;SDS011;40636;52.424;-1.948;2023-04-03T12:56:48;5.22;;;2.17;;
43363;SDS011;40636;52.424;-1.948;2023-04-03T12:59:25;2.50;;;1.40;;
43363;SDS011;40636;52.424;-1.948;2023-04-03T13:01:53;5.75;;;1.70;;
43363;SDS011;40636;52.424;-1.948;2023-04-03T13:04:22;5.22;;;2.03;;
43363;SDS011;40636;52.424;-1.948;2023-04-03T13:06:49;6.82;;;1.80;;
43363;SDS011;40636;52.424;-1.948;2023-04-03T13:11:50;3.40;;;1.52;;
43363;SDS011;40636;52.424;-1.948;2023-04-03T13:14:23;3.97;;;2.13;;
43363;SDS011;40636;52.424;-1.948;2023-04-03T13:16:58;5.30;;;1.98;;
43363;SDS011;40636;52.424;-1.948;2023-04-03T13:19:27;3.15;;;1.92;;
43363;SDS011;40636;52.424;-1.948;2023-04-03T13:22:05;6.78;;;1.83;;
43363;SDS011;40636;52.424;-1.948;2023-04-03T13:24:35;6.13;;;1.73;;
43363;SDS011;40636;52.424;-1.948;2023-04-03T13:27:04;3.25;;;1.77;;
43363;SDS011;40636;52.424;-1.948;2023-04-03T13:29:34;4.75;;;1.60;;
43363;SDS011;40636;52.424;-1.948;2023-04-03T13:32:03;2.95;;;1.60;;
43363;SDS011;40636;52.424;-1.948;2023-04-03T13:34:40;3.85;;;1.70;;
43363;SDS011;40636;52.424;-1.948;2023-04-03T13:37:26;5.22;;;1.48;;
43363;SDS011;40636;52.424;-1.948;2023-04-03T13:40:08;5.35;;;1.50;;
43363;SDS011;40636;52.424;-1.948;2023-04-03T13:42:39;1.50;;;1.40;;
43363;SDS011;40636;52.424;-1.948;2023-04-03T13:53:26;4.05;;;2.05;;
43363;SDS011;40636;52.424;-1.948;2023-04-03T13:56:39;3.67;;;1.90;;
43363;SDS011;40636;52.424;-1.948;2023-04-03T13:58:54;3.05;;;2.58;;
43363;SDS011;40636;52.424;-1.948;2023-04-03T14:04:24;2.38;;;2.17;;
43363;SDS011;40636;52.424;-1.948;2023-04-03T14:09:22;3.70;;;1.55;;
43363;SDS011;40636;52.424;-1.948;2023-04-03T14:11:50;1.63;;;1.40;;
43363;SDS011;40636;52.424;-1.948;2023-04-03T14:14:27;3.10;;;2.00;;
43363;SDS011;40636;52.424;-1.948;2023-04-03T14:16:57;4.50;;;1.80;;
43363;SDS011;40636;52.424;-1.948;2023-04-03T14:19:28;5.53;;;1.55;;
43363;SDS011;40636;52.424;-1.948;2023-04-03T14:21:58;3.80;;;2.95;;
43363;SDS011;40636;52.424;-1.948;2023-04-03T14:24:27;10.52;;;2.33;;
43363;SDS011;40636;52.424;-1.948;2023-04-03T14:26:55;4.20;;;1.92;;
43363;SDS011;40636;52.424;-1.948;2023-04-03T14:29:21;4.05;;;2.08;;
43363;SDS011;40636;52.424;-1.948;2023-04-03T14:31:49;6.10;;;2.13;;
43363;SDS011;40636;52.424;-1.948;2023-04-03T14:34:29;2.53;;;1.58;;
43363;SDS011;40636;52.424;-1.948;2023-04-03T14:36:55;3.92;;;1.90;;
43363;SDS011;40636;52.424;-1.948;2023-04-03T14:39:22;4.80;;;1.90;;
43363;SDS011;40636;52.424;-1.948;2023-04-03T14:41:49;5.80;;;2.13;;
43363;SDS011;40636;52.424;-1.948;2023-04-03T14:44:16;2.35;;;1.98;;
43363;SDS011;40636;52.424;-1.948;2023-04-03T14:46:43;2.30;;;1.90;;
43363;SDS011;40636;52.424;-1.948;2023-04-03T14:49:24;4.78;;;2.83;;
43363;SDS011;40636;52.424;-1.948;2023-04-03T14:51:54;4.80;;;2.40;;
43363;SDS011;40636;52.424;-1.948;2023-04-03T14:54:22;4.55;;;1.88;;
43363;SDS011;40636;52.424;-1.948;2023-04-03T14:56:54;2.85;;;1.77;;
43363;SDS011;40636;52.424;-1.948;2023-04-03T14:59:23;2.42;;;1.90;;
43363;SDS011;40636;52.424;-1.948;2023-04-03T15:01:50;3.78;;;2.00;;
43363;SDS011;40636;52.424;-1.948;2023-04-03T15:04:18;8.13;;;2.08;;
43363;SDS011;40636;52.424;-1.948;2023-04-03T15:06:47;5.28;;;1.80;;
43363;SDS011;40636;52.424;-1.948;2023-04-03T15:11:49;6.55;;;2.85;;
43363;SDS011;40636;52.424;-1.948;2023-04-03T15:14:17;4.53;;;2.25;;
43363;SDS011;40636;52.424;-1.948;2023-04-03T15:17:04;4.68;;;1.90;;
43363;SDS011;40636;52.424;-1.948;2023-04-03T15:19:35;4.55;;;2.50;;
43363;SDS011;40636;52.424;-1.948;2023-04-03T15:22:03;3.70;;;2.53;;
43363;SDS011;40636;52.424;-1.948;2023-04-03T15:24:30;5.05;;;2.40;;
43363;SDS011;40636;52.424;-1.948;2023-04-03T15:26:57;4.82;;;2.72;;
43363;SDS011;40636;52.424;-1.948;2023-04-03T15:29:24;3.03;;;1.77;;
43363;SDS011;40636;52.424;-1.948;2023-04-03T15:31:51;2.75;;;1.60;;
43363;SDS011;40636;52.424;-1.948;2023-04-03T15:34:19;2.38;;;2.05;;
43363;SDS011;40636;52.424;-1.948;2023-04-03T15:36:49;8.02;;;3.03;;
43363;SDS011;40636;52.424;-1.948;2023-04-03T15:39:19;4.13;;;2.17;;
43363;SDS011;40636;52.424;-1.948;2023-04-03T15:41:46;4.97;;;2.08;;
43363;SDS011;40636;52.424;-1.948;2023-04-03T15:44:13;5.03;;;2.33;;
43363;SDS011;40636;52.424;-1.948;2023-04-03T15:46:47;4.03;;;2.00;;
43363;SDS011;40636;52.424;-1.948;2023-04-03T15:49:16;3.00;;;2.03;;
43363;SDS011;40636;52.424;-1.948;2023-04-03T15:51:44;3.10;;;2.15;;
43363;SDS011;40636;52.424;-1.948;2023-04-03T15:54:11;6.55;;;1.70;;
43363;SDS011;40636;52.424;-1.948;2023-04-03T15:56:37;4.35;;;1.85;;
43363;SDS011;40636;52.424;-1.948;2023-04-03T15:59:04;2.53;;;2.00;;
43363;SDS011;40636;52.424;-1.948;2023-04-03T16:01:31;6.80;;;2.08;;
43363;SDS011;40636;52.424;-1.948;2023-04-03T16:03:59;3.85;;;2.05;;
43363;SDS011;40636;52.424;-1.948;2023-04-03T16:06:26;2.97;;;1.98;;
43363;SDS011;40636;52.424;-1.948;2023-04-03T16:08:55;4.13;;;2.42;;
43363;SDS011;40636;52.424;-1.948;2023-04-03T16:11:25;3.85;;;2.50;;
43363;SDS011;40636;52.424;-1.948;2023-04-03T16:13:52;2.10;;;1.70;;
43363;SDS011;40636;52.424;-1.948;2023-04-03T16:16:20;4.18;;;2.17;;
43363;SDS011;40636;52.424;-1.948;2023-04-03T16:18:48;5.45;;;2.38;;
43363;SDS011;40636;52.424;-1.948;2023-04-03T16:21:16;2.97;;;2.05;;
43363;SDS011;40636;52.424;-1.948;2023-04-03T16:23:44;5.80;;;2.10;;
43363;SDS011;40636;52.424;-1.948;2023-04-03T16:26:11;10.98;;;2.55;;
43363;SDS011;40636;52.424;-1.948;2023-04-03T16:28:38;5.30;;;2.13;;
43363;SDS011;40636;52.424;-1.948;2023-04-03T16:31:06;5.18;;;3.13;;
43363;SDS011;40636;52.424;-1.948;2023-04-03T16:33:33;16.92;;;7.03;;
43363;SDS011;40636;52.424;-1.948;2023-04-03T16:36:01;3.80;;;2.45;;